sensor_id;sensor_type;location;lat;lon;timestamp;P1;durP1;ratioP1;P2;durP2;ratioP2
16516;SDS011;8371;52.272;9.746;2023-04-01T00:01:25;0.40;;;0.40;;
16516;SDS011;8371;52.272;9.746;2023-04-01T00:03:51;0.50;;;0.50;;
16516;SDS011;8371;52.272;9.746;2023-04-01T00:06:17;1.03;;;0.87;;
16516;SDS011;8371;52.272;9.746;2023-04-01T00:08:43;0.50;;;0.50;;
16516;SDS011;8371;52.272;9.746;2023-04-01T00:11:10;0.60;;;0.60;;
16516;SDS011;8371;52.272;9.746;2023-04-01T00:13:35;1.77;;;0.90;;
16516;SDS011;8371;52.272;9.746;2023-04-01T00:16:01;0.50;;;0.50;;
16516;SDS011;8371;52.272;9.746;2023-04-01T00:18:28;0.67;;;0.60;;
16516;SDS011;8371;52.272;9.746;2023-04-01T00:20:55;0.47;;;0.40;;
16516;SDS011;8371;52.272;9.746;2023-04-01T00:23:20;0.33;;;0.30;;
16516;SDS011;8371;52.272;9.746;2023-04-01T00:25:47;0.60;;;0.40;;
16516;SDS011;8371;52.272;9.746;2023-04-01T00:28:14;0.33;;;0.33;;
16516;SDS011;8371;52.272;9.746;2023-04-01T00:30:42;0.20;;;0.20;;
16516;SDS011;8371;52.272;9.746;2023-04-01T00:33:07;0.77;;;0.60;;
16516;SDS011;8371;52.272;9.746;2023-04-01T00:35:33;0.20;;;0.20;;
16516;SDS011;8371;52.272;9.746;2023-04-01T00:37:59;0.20;;;0.20;;
16516;SDS011;8371;52.272;9.746;2023-04-01T00:40:30;0.50;;;0.30;;
16516;SDS011;8371;52.272;9.746;2023-04-01T00:42:57;0.57;;;0.40;;
16516;SDS011;8371;52.272;9.746;2023-04-01T00:45:28;0.23;;;0.23;;
16516;SDS011;8371;52.272;9.746;2023-04-01T00:47:56;0.30;;;0.30;;
16516;SDS011;8371;52.272;9.746;2023-04-01T00:50:25;0.30;;;0.20;;
16516;SDS011;8371;52.272;9.746;2023-04-01T00:52:52;0.20;;;0.20;;
16516;SDS011;8371;52.272;9.746;2023-04-01T00:55:18;0.77;;;0.30;;
16516;SDS011;8371;52.272;9.746;2023-04-01T00:57:46;2.20;;;0.40;;
16516;SDS011;8371;52.272;9.746;2023-04-01T01:00:14;0.37;;;0.30;;
16516;SDS011;8371;52.272;9.746;2023-04-01T01:02:42;0.20;;;0.20;;
16516;SDS011;8371;52.272;9.746;2023-04-01T01:05:11;0.20;;;0.20;;
16516;SDS011;8371;52.272;9.746;2023-04-01T01:07:40;0.60;;;0.27;;
16516;SDS011;8371;52.272;9.746;2023-04-01T01:10:26;0.40;;;0.40;;
16516;SDS011;8371;52.272;9.746;2023-04-01T01:18:43;0.53;;;0.27;;
16516;SDS011;8371;52.272;9.746;2023-04-01T01:26:39;0.30;;;0.30;;
16516;SDS011;8371;52.272;9.746;2023-04-01T01:35:16;0.53;;;0.20;;
16516;SDS011;8371;52.272;9.746;2023-04-01T01:38:03;0.20;;;0.20;;
16516;SDS011;8371;52.272;9.746;2023-04-01T01:40:31;0.30;;;0.30;;
16516;SDS011;8371;52.272;9.746;2023-04-01T01:42:59;0.20;;;0.20;;
16516;SDS011;8371;52.272;9.746;2023-04-01T01:45:28;0.20;;;0.20;;
16516;SDS011;8371;52.272;9.746;2023-04-01T01:47:55;0.33;;;0.30;;
16516;SDS011;8371;52.272;9.746;2023-04-01T01:50:23;0.30;;;0.30;;
16516;SDS011;8371;52.272;9.746;2023-04-01T01:52:50;0.23;;;0.23;;
16516;SDS011;8371;52.272;9.746;2023-04-01T01:55:23;0.20;;;0.10;;
16516;SDS011;8371;52.272;9.746;2023-04-01T01:57:51;0.70;;;0.20;;
16516;SDS011;8371;52.272;9.746;2023-04-01T02:00:17;0.30;;;0.20;;
16516;SDS011;8371;52.272;9.746;2023-04-01T02:02:45;0.20;;;0.20;;
16516;SDS011;8371;52.272;9.746;2023-04-01T02:05:17;0.20;;;0.20;;
16516;SDS011;8371;52.272;9.746;2023-04-01T02:07:50;0.40;;;0.40;;
16516;SDS011;8371;52.272;9.746;2023-04-01T02:10:20;0.20;;;0.20;;
16516;SDS011;8371;52.272;9.746;2023-04-01T02:12:49;0.27;;;0.27;;
16516;SDS011;8371;52.272;9.746;2023-04-01T02:15:18;0.43;;;0.43;;
16516;SDS011;8371;52.272;9.746;2023-04-01T02:17:45;0.20;;;0.20;;
16516;SDS011;8371;52.272;9.746;2023-04-01T02:20:15;0.30;;;0.30;;
16516;SDS011;8371;52.272;9.746;2023-04-01T02:22:52;0.30;;;0.30;;
16516;SDS011;8371;52.272;9.746;2023-04-01T02:25:23;0.10;;;0.10;;
16516;SDS011;8371;52.272;9.746;2023-04-01T02:27:52;0.23;;;0.23;;
16516;SDS011;8371;52.272;9.746;2023-04-01T02:30:20;0.10;;;0.10;;
16516;SDS011;8371;52.272;9.746;2023-04-01T02:32:46;0.37;;;0.20;;
16516;SDS011;8371;52.272;9.746;2023-04-01T02:35:14;1.23;;;0.20;;
16516;SDS011;8371;52.272;9.746;2023-04-01T02:37:44;0.50;;;0.30;;
16516;SDS011;8371;52.272;9.746;2023-04-01T02:40:13;1.50;;;0.20;;
16516;SDS011;8371;52.272;9.746;2023-04-01T02:42:39;1.00;;;0.50;;
16516;SDS011;8371;52.272;9.746;2023-04-01T02:45:06;0.20;;;0.20;;
16516;SDS011;8371;52.272;9.746;2023-04-01T02:47:32;0.97;;;0.30;;
16516;SDS011;8371;52.272;9.746;2023-04-01T02:49:58;0.30;;;0.30;;
16516;SDS011;8371;52.272;9.746;2023-04-01T02:52:24;0.47;;;0.40;;
16516;SDS011;8371;52.272;9.746;2023-04-01T02:54:50;0.10;;;0.10;;
16516;SDS011;8371;52.272;9.746;2023-04-01T02:57:16;0.27;;;0.23;;
16516;SDS011;8371;52.272;9.746;2023-04-01T02:59:42;0.20;;;0.10;;
16516;SDS011;8371;52.272;9.746;2023-04-01T03:02:08;0.10;;;0.10;;
16516;SDS011;8371;52.272;9.746;2023-04-01T03:04:33;0.20;;;0.20;;
16516;SDS011;8371;52.272;9.746;2023-04-01T03:06:59;0.20;;;0.17;;
16516;SDS011;8371;52.272;9.746;2023-04-01T03:09:25;1.13;;;0.23;;
16516;SDS011;8371;52.272;9.746;2023-04-01T03:11:50;0.20;;;0.20;;
16516;SDS011;8371;52.272;9.746;2023-04-01T03:14:16;0.20;;;0.20;;
16516;SDS011;8371;52.272;9.746;2023-04-01T03:16:42;1.50;;;0.20;;
16516;SDS011;8371;52.272;9.746;2023-04-01T03:19:07;0.20;;;0.20;;
16516;SDS011;8371;52.272;9.746;2023-04-01T03:21:33;0.30;;;0.30;;
16516;SDS011;8371;52.272;9.746;2023-04-01T03:23:59;0.10;;;0.10;;
16516;SDS011;8371;52.272;9.746;2023-04-01T03:26:24;1.07;;;0.20;;
16516;SDS011;8371;52.272;9.746;2023-04-01T03:28:52;0.30;;;0.20;;
16516;SDS011;8371;52.272;9.746;2023-04-01T03:31:18;0.27;;;0.20;;
16516;SDS011;8371;52.272;9.746;2023-04-01T03:33:44;0.20;;;0.20;;
16516;SDS011;8371;52.272;9.746;2023-04-01T03:36:10;0.20;;;0.20;;
16516;SDS011;8371;52.272;9.746;2023-04-01T03:38:38;0.40;;;0.40;;
16516;SDS011;8371;52.272;9.746;2023-04-01T03:41:06;0.33;;;0.20;;
16516;SDS011;8371;52.272;9.746;2023-04-01T03:43:32;0.10;;;0.10;;
16516;SDS011;8371;52.272;9.746;2023-04-01T03:45:58;0.23;;;0.20;;
16516;SDS011;8371;52.272;9.746;2023-04-01T03:48:24;0.10;;;0.10;;
16516;SDS011;8371;52.272;9.746;2023-04-01T03:50:50;0.30;;;0.30;;
16516;SDS011;8371;52.272;9.746;2023-04-01T03:53:16;0.40;;;0.40;;
16516;SDS011;8371;52.272;9.746;2023-04-01T03:55:42;0.30;;;0.27;;
16516;SDS011;8371;52.272;9.746;2023-04-01T03:58:07;0.13;;;0.13;;
16516;SDS011;8371;52.272;9.746;2023-04-01T04:00:33;0.30;;;0.30;;
16516;SDS011;8371;52.272;9.746;2023-04-01T04:02:59;0.10;;;0.10;;
16516;SDS011;8371;52.272;9.746;2023-04-01T04:05:26;0.10;;;0.10;;
16516;SDS011;8371;52.272;9.746;2023-04-01T04:07:52;0.30;;;0.30;;
16516;SDS011;8371;52.272;9.746;2023-04-01T04:10:18;0.30;;;0.30;;
16516;SDS011;8371;52.272;9.746;2023-04-01T04:12:45;0.10;;;0.10;;
16516;SDS011;8371;52.272;9.746;2023-04-01T04:15:11;0.30;;;0.10;;
16516;SDS011;8371;52.272;9.746;2023-04-01T04:17:36;0.17;;;0.10;;
16516;SDS011;8371;52.272;9.746;2023-04-01T04:20:02;0.20;;;0.20;;
16516;SDS011;8371;52.272;9.746;2023-04-01T04:22:28;0.30;;;0.20;;
16516;SDS011;8371;52.272;9.746;2023-04-01T04:24:54;0.23;;;0.10;;
16516;SDS011;8371;52.272;9.746;2023-04-01T04:27:20;0.10;;;0.10;;
16516;SDS011;8371;52.272;9.746;2023-04-01T04:29:46;0.20;;;0.20;;
16516;SDS011;8371;52.272;9.746;2023-04-01T04:32:11;0.10;;;0.10;;
16516;SDS011;8371;52.272;9.746;2023-04-01T04:34:37;0.10;;;0.10;;
16516;SDS011;8371;52.272;9.746;2023-04-01T04:37:03;0.27;;;0.20;;
16516;SDS011;8371;52.272;9.746;2023-04-01T04:39:29;0.20;;;0.20;;
16516;SDS011;8371;52.272;9.746;2023-04-01T04:41:55;1.00;;;0.20;;
16516;SDS011;8371;52.272;9.746;2023-04-01T04:44:20;0.33;;;0.20;;
16516;SDS011;8371;52.272;9.746;2023-04-01T04:46:46;0.20;;;0.20;;
16516;SDS011;8371;52.272;9.746;2023-04-01T04:49:11;0.10;;;0.10;;
16516;SDS011;8371;52.272;9.746;2023-04-01T04:51:37;0.30;;;0.30;;
16516;SDS011;8371;52.272;9.746;2023-04-01T04:54:04;0.30;;;0.30;;
16516;SDS011;8371;52.272;9.746;2023-04-01T04:56:31;0.30;;;0.30;;
16516;SDS011;8371;52.272;9.746;2023-04-01T04:58:57;0.30;;;0.30;;
16516;SDS011;8371;52.272;9.746;2023-04-01T05:01:23;0.40;;;0.40;;
16516;SDS011;8371;52.272;9.746;2023-04-01T05:03:49;0.47;;;0.47;;
16516;SDS011;8371;52.272;9.746;2023-04-01T05:06:15;0.63;;;0.30;;
16516;SDS011;8371;52.272;9.746;2023-04-01T05:08:42;0.60;;;0.40;;
16516;SDS011;8371;52.272;9.746;2023-04-01T05:11:09;0.33;;;0.33;;
16516;SDS011;8371;52.272;9.746;2023-04-01T05:13:41;0.40;;;0.40;;
16516;SDS011;8371;52.272;9.746;2023-04-01T05:16:12;0.57;;;0.40;;
16516;SDS011;8371;52.272;9.746;2023-04-01T05:18:36;0.40;;;0.40;;
16516;SDS011;8371;52.272;9.746;2023-04-01T05:21:01;0.40;;;0.40;;
16516;SDS011;8371;52.272;9.746;2023-04-01T05:23:27;0.40;;;0.40;;
16516;SDS011;8371;52.272;9.746;2023-04-01T05:25:53;0.67;;;0.50;;
16516;SDS011;8371;52.272;9.746;2023-04-01T05:28:19;0.20;;;0.20;;
16516;SDS011;8371;52.272;9.746;2023-04-01T05:30:45;0.40;;;0.40;;
16516;SDS011;8371;52.272;9.746;2023-04-01T05:33:11;0.30;;;0.30;;
16516;SDS011;8371;52.272;9.746;2023-04-01T05:35:38;0.37;;;0.30;;
16516;SDS011;8371;52.272;9.746;2023-04-01T05:38:05;0.63;;;0.63;;
16516;SDS011;8371;52.272;9.746;2023-04-01T05:40:31;0.53;;;0.53;;
16516;SDS011;8371;52.272;9.746;2023-04-01T05:42:57;0.40;;;0.40;;
16516;SDS011;8371;52.272;9.746;2023-04-01T05:45:24;1.37;;;0.67;;
16516;SDS011;8371;52.272;9.746;2023-04-01T05:47:50;0.53;;;0.20;;
16516;SDS011;8371;52.272;9.746;2023-04-01T05:50:16;0.30;;;0.30;;
16516;SDS011;8371;52.272;9.746;2023-04-01T05:52:41;0.40;;;0.40;;
16516;SDS011;8371;52.272;9.746;2023-04-01T05:55:07;0.93;;;0.27;;
16516;SDS011;8371;52.272;9.746;2023-04-01T05:57:34;0.20;;;0.20;;
16516;SDS011;8371;52.272;9.746;2023-04-01T06:00:00;0.20;;;0.20;;
16516;SDS011;8371;52.272;9.746;2023-04-01T06:02:25;0.37;;;0.37;;
16516;SDS011;8371;52.272;9.746;2023-04-01T06:04:54;0.30;;;0.30;;
16516;SDS011;8371;52.272;9.746;2023-04-01T06:07:21;0.40;;;0.40;;
16516;SDS011;8371;52.272;9.746;2023-04-01T06:09:47;0.43;;;0.43;;
16516;SDS011;8371;52.272;9.746;2023-04-01T06:12:22;0.77;;;0.30;;
16516;SDS011;8371;52.272;9.746;2023-04-01T06:14:55;0.30;;;0.30;;
16516;SDS011;8371;52.272;9.746;2023-04-01T06:22:51;0.73;;;0.30;;
16516;SDS011;8371;52.272;9.746;2023-04-01T06:31:38;0.53;;;0.43;;
16516;SDS011;8371;52.272;9.746;2023-04-01T06:34:20;0.30;;;0.30;;
16516;SDS011;8371;52.272;9.746;2023-04-01T06:42:20;0.30;;;0.30;;
16516;SDS011;8371;52.272;9.746;2023-04-01T06:45:15;0.30;;;0.30;;
16516;SDS011;8371;52.272;9.746;2023-04-01T06:50:29;1.03;;;0.50;;
16516;SDS011;8371;52.272;9.746;2023-04-01T06:53:29;0.40;;;0.30;;
16516;SDS011;8371;52.272;9.746;2023-04-01T06:56:04;0.37;;;0.37;;
16516;SDS011;8371;52.272;9.746;2023-04-01T06:58:44;0.37;;;0.37;;
16516;SDS011;8371;52.272;9.746;2023-04-01T07:01:16;0.40;;;0.40;;
16516;SDS011;8371;52.272;9.746;2023-04-01T07:03:45;2.40;;;0.30;;
16516;SDS011;8371;52.272;9.746;2023-04-01T07:06:27;0.40;;;0.40;;
16516;SDS011;8371;52.272;9.746;2023-04-01T07:09:05;0.40;;;0.40;;
16516;SDS011;8371;52.272;9.746;2023-04-01T07:11:34;0.30;;;0.30;;
16516;SDS011;8371;52.272;9.746;2023-04-01T07:16:43;0.40;;;0.40;;
16516;SDS011;8371;52.272;9.746;2023-04-01T07:21:56;0.30;;;0.30;;
16516;SDS011;8371;52.272;9.746;2023-04-01T07:24:34;0.20;;;0.20;;
16516;SDS011;8371;52.272;9.746;2023-04-01T07:27:02;0.57;;;0.57;;
16516;SDS011;8371;52.272;9.746;2023-04-01T07:29:28;0.20;;;0.20;;
16516;SDS011;8371;52.272;9.746;2023-04-01T07:32:01;1.30;;;0.40;;
16516;SDS011;8371;52.272;9.746;2023-04-01T07:34:45;0.47;;;0.47;;
16516;SDS011;8371;52.272;9.746;2023-04-01T07:47:57;0.40;;;0.40;;
16516;SDS011;8371;52.272;9.746;2023-04-01T07:50:43;0.10;;;0.10;;
16516;SDS011;8371;52.272;9.746;2023-04-01T07:55:58;0.27;;;0.27;;
16516;SDS011;8371;52.272;9.746;2023-04-01T08:01:24;0.43;;;0.43;;
16516;SDS011;8371;52.272;9.746;2023-04-01T08:04:08;0.30;;;0.30;;
16516;SDS011;8371;52.272;9.746;2023-04-01T08:09:48;0.30;;;0.30;;
16516;SDS011;8371;52.272;9.746;2023-04-01T08:12:27;1.43;;;0.23;;
16516;SDS011;8371;52.272;9.746;2023-04-01T08:14:56;0.23;;;0.20;;
16516;SDS011;8371;52.272;9.746;2023-04-01T08:17:54;0.30;;;0.30;;
16516;SDS011;8371;52.272;9.746;2023-04-01T08:25:48;1.80;;;0.20;;
16516;SDS011;8371;52.272;9.746;2023-04-01T08:28:23;0.30;;;0.30;;
16516;SDS011;8371;52.272;9.746;2023-04-01T08:31:04;0.17;;;0.17;;
16516;SDS011;8371;52.272;9.746;2023-04-01T08:33:36;0.20;;;0.20;;
16516;SDS011;8371;52.272;9.746;2023-04-01T08:36:05;0.30;;;0.30;;
16516;SDS011;8371;52.272;9.746;2023-04-01T08:39:19;0.20;;;0.20;;
16516;SDS011;8371;52.272;9.746;2023-04-01T08:44:16;0.30;;;0.30;;
16516;SDS011;8371;52.272;9.746;2023-04-01T08:46:54;0.50;;;0.20;;
16516;SDS011;8371;52.272;9.746;2023-04-01T08:49:43;0.20;;;0.20;;
16516;SDS011;8371;52.272;9.746;2023-04-01T08:52:18;0.40;;;0.40;;
16516;SDS011;8371;52.272;9.746;2023-04-01T08:57:40;0.53;;;0.40;;
16516;SDS011;8371;52.272;9.746;2023-04-01T09:02:55;0.20;;;0.20;;
16516;SDS011;8371;52.272;9.746;2023-04-01T09:05:40;0.17;;;0.17;;
16516;SDS011;8371;52.272;9.746;2023-04-01T09:08:28;5.97;;;0.10;;
16516;SDS011;8371;52.272;9.746;2023-04-01T09:10:56;0.20;;;0.20;;
16516;SDS011;8371;52.272;9.746;2023-04-01T09:16:35;0.60;;;0.40;;
16516;SDS011;8371;52.272;9.746;2023-04-01T09:22:05;0.23;;;0.23;;
16516;SDS011;8371;52.272;9.746;2023-04-01T09:24:46;0.33;;;0.20;;
16516;SDS011;8371;52.272;9.746;2023-04-01T09:27:26;0.10;;;0.10;;
16516;SDS011;8371;52.272;9.746;2023-04-01T09:32:54;0.13;;;0.10;;
16516;SDS011;8371;52.272;9.746;2023-04-01T09:40:54;0.20;;;0.20;;
16516;SDS011;8371;52.272;9.746;2023-04-01T09:43:33;0.37;;;0.37;;
16516;SDS011;8371;52.272;9.746;2023-04-01T09:46:17;0.10;;;0.10;;
16516;SDS011;8371;52.272;9.746;2023-04-01T09:54:36;0.17;;;0.17;;
16516;SDS011;8371;52.272;9.746;2023-04-01T09:59:47;0.20;;;0.17;;
16516;SDS011;8371;52.272;9.746;2023-04-01T10:05:25;0.30;;;0.30;;
16516;SDS011;8371;52.272;9.746;2023-04-01T10:13:26;0.20;;;0.20;;
16516;SDS011;8371;52.272;9.746;2023-04-01T10:16:15;0.40;;;0.40;;
16516;SDS011;8371;52.272;9.746;2023-04-01T10:22:07;0.17;;;0.17;;
16516;SDS011;8371;52.272;9.746;2023-04-01T10:24:55;0.20;;;0.20;;
16516;SDS011;8371;52.272;9.746;2023-04-01T10:27:30;1.53;;;0.30;;
16516;SDS011;8371;52.272;9.746;2023-04-01T10:32:40;0.30;;;0.30;;
16516;SDS011;8371;52.272;9.746;2023-04-01T10:35:43;0.20;;;0.20;;
16516;SDS011;8371;52.272;9.746;2023-04-01T10:38:19;0.20;;;0.20;;
16516;SDS011;8371;52.272;9.746;2023-04-01T10:40:57;0.13;;;0.13;;
16516;SDS011;8371;52.272;9.746;2023-04-01T10:54:29;0.10;;;0.10;;
16516;SDS011;8371;52.272;9.746;2023-04-01T11:08:41;0.20;;;0.20;;
16516;SDS011;8371;52.272;9.746;2023-04-01T11:14:15;0.20;;;0.20;;
16516;SDS011;8371;52.272;9.746;2023-04-01T11:22:12;0.23;;;0.23;;
16516;SDS011;8371;52.272;9.746;2023-04-01T11:27:30;0.53;;;0.50;;
16516;SDS011;8371;52.272;9.746;2023-04-01T11:30:11;0.20;;;0.20;;
16516;SDS011;8371;52.272;9.746;2023-04-01T11:35:32;0.20;;;0.20;;
16516;SDS011;8371;52.272;9.746;2023-04-01T11:38:15;0.20;;;0.20;;
16516;SDS011;8371;52.272;9.746;2023-04-01T11:40:56;0.17;;;0.17;;
16516;SDS011;8371;52.272;9.746;2023-04-01T11:43:37;0.20;;;0.20;;
16516;SDS011;8371;52.272;9.746;2023-04-01T11:46:10;0.10;;;0.10;;
16516;SDS011;8371;52.272;9.746;2023-04-01T11:57:20;0.20;;;0.20;;
16516;SDS011;8371;52.272;9.746;2023-04-01T11:59:57;0.30;;;0.30;;
16516;SDS011;8371;52.272;9.746;2023-04-01T12:02:29;0.20;;;0.20;;
16516;SDS011;8371;52.272;9.746;2023-04-01T12:05:03;0.20;;;0.20;;
16516;SDS011;8371;52.272;9.746;2023-04-01T12:07:41;0.20;;;0.20;;
16516;SDS011;8371;52.272;9.746;2023-04-01T12:10:21;0.20;;;0.20;;
16516;SDS011;8371;52.272;9.746;2023-04-01T12:15:57;0.10;;;0.10;;
16516;SDS011;8371;52.272;9.746;2023-04-01T12:18:33;0.20;;;0.20;;
16516;SDS011;8371;52.272;9.746;2023-04-01T12:33:00;0.40;;;0.40;;
16516;SDS011;8371;52.272;9.746;2023-04-01T12:41:44;0.20;;;0.20;;
16516;SDS011;8371;52.272;9.746;2023-04-01T12:44:23;0.40;;;0.30;;
16516;SDS011;8371;52.272;9.746;2023-04-01T12:55:58;0.20;;;0.20;;
16516;SDS011;8371;52.272;9.746;2023-04-01T13:01:10;0.20;;;0.20;;
16516;SDS011;8371;52.272;9.746;2023-04-01T13:09:40;0.30;;;0.30;;
16516;SDS011;8371;52.272;9.746;2023-04-01T13:20:57;0.70;;;0.40;;
16516;SDS011;8371;52.272;9.746;2023-04-01T13:23:39;0.27;;;0.27;;
16516;SDS011;8371;52.272;9.746;2023-04-01T13:26:18;0.20;;;0.20;;
16516;SDS011;8371;52.272;9.746;2023-04-01T13:29:07;0.27;;;0.27;;
16516;SDS011;8371;52.272;9.746;2023-04-01T13:34:35;0.40;;;0.40;;
16516;SDS011;8371;52.272;9.746;2023-04-01T13:40:16;0.30;;;0.30;;
16516;SDS011;8371;52.272;9.746;2023-04-01T13:42:34;0.20;;;0.20;;
16516;SDS011;8371;52.272;9.746;2023-04-01T13:45:08;0.20;;;0.20;;
16516;SDS011;8371;52.272;9.746;2023-04-01T13:47:50;0.27;;;0.27;;
16516;SDS011;8371;52.272;9.746;2023-04-01T13:56:24;0.40;;;0.40;;
16516;SDS011;8371;52.272;9.746;2023-04-01T14:02:13;0.37;;;0.37;;
16516;SDS011;8371;52.272;9.746;2023-04-01T14:07:58;0.30;;;0.30;;
16516;SDS011;8371;52.272;9.746;2023-04-01T14:10:38;0.40;;;0.40;;
16516;SDS011;8371;52.272;9.746;2023-04-01T14:16:19;0.40;;;0.40;;
16516;SDS011;8371;52.272;9.746;2023-04-01T14:21:35;0.30;;;0.30;;
16516;SDS011;8371;52.272;9.746;2023-04-01T14:26:59;0.50;;;0.50;;
16516;SDS011;8371;52.272;9.746;2023-04-01T14:29:37;0.27;;;0.27;;
16516;SDS011;8371;52.272;9.746;2023-04-01T14:32:11;0.30;;;0.30;;
16516;SDS011;8371;52.272;9.746;2023-04-01T14:34:54;0.40;;;0.40;;
16516;SDS011;8371;52.272;9.746;2023-04-01T14:42:45;0.80;;;0.80;;
16516;SDS011;8371;52.272;9.746;2023-04-01T14:47:58;0.60;;;0.60;;
16516;SDS011;8371;52.272;9.746;2023-04-01T14:50:27;0.43;;;0.43;;
16516;SDS011;8371;52.272;9.746;2023-04-01T14:53:00;0.50;;;0.50;;
16516;SDS011;8371;52.272;9.746;2023-04-01T14:58:44;0.93;;;0.50;;
16516;SDS011;8371;52.272;9.746;2023-04-01T15:07:21;0.47;;;0.47;;
16516;SDS011;8371;52.272;9.746;2023-04-01T15:10:09;0.20;;;0.20;;
16516;SDS011;8371;52.272;9.746;2023-04-01T15:12:54;0.43;;;0.43;;
16516;SDS011;8371;52.272;9.746;2023-04-01T15:18:18;0.40;;;0.40;;
16516;SDS011;8371;52.272;9.746;2023-04-01T15:21:11;0.60;;;0.60;;
16516;SDS011;8371;52.272;9.746;2023-04-01T15:29:24;0.23;;;0.23;;
16516;SDS011;8371;52.272;9.746;2023-04-01T15:32:02;0.40;;;0.40;;
16516;SDS011;8371;52.272;9.746;2023-04-01T15:34:36;0.20;;;0.13;;
16516;SDS011;8371;52.272;9.746;2023-04-01T15:43:14;0.10;;;0.10;;
16516;SDS011;8371;52.272;9.746;2023-04-01T15:45:56;0.30;;;0.30;;
16516;SDS011;8371;52.272;9.746;2023-04-01T15:48:33;0.30;;;0.30;;
16516;SDS011;8371;52.272;9.746;2023-04-01T15:51:08;0.30;;;0.30;;
16516;SDS011;8371;52.272;9.746;2023-04-01T15:53:55;0.50;;;0.50;;
16516;SDS011;8371;52.272;9.746;2023-04-01T15:56:55;0.30;;;0.30;;
16516;SDS011;8371;52.272;9.746;2023-04-01T15:59:47;0.33;;;0.33;;
16516;SDS011;8371;52.272;9.746;2023-04-01T16:04:57;0.20;;;0.20;;
16516;SDS011;8371;52.272;9.746;2023-04-01T16:10:29;0.30;;;0.30;;
16516;SDS011;8371;52.272;9.746;2023-04-01T16:13:24;0.40;;;0.40;;
16516;SDS011;8371;52.272;9.746;2023-04-01T16:18:37;0.20;;;0.20;;
16516;SDS011;8371;52.272;9.746;2023-04-01T16:21:21;0.27;;;0.27;;
16516;SDS011;8371;52.272;9.746;2023-04-01T16:23:48;0.30;;;0.30;;
16516;SDS011;8371;52.272;9.746;2023-04-01T16:26:22;0.20;;;0.20;;
16516;SDS011;8371;52.272;9.746;2023-04-01T16:28:57;0.20;;;0.20;;
16516;SDS011;8371;52.272;9.746;2023-04-01T16:31:30;0.40;;;0.40;;
16516;SDS011;8371;52.272;9.746;2023-04-01T16:34:17;0.50;;;0.50;;
16516;SDS011;8371;52.272;9.746;2023-04-01T16:37:03;0.40;;;0.40;;
16516;SDS011;8371;52.272;9.746;2023-04-01T16:39:41;0.40;;;0.40;;
16516;SDS011;8371;52.272;9.746;2023-04-01T16:47:38;0.30;;;0.30;;
16516;SDS011;8371;52.272;9.746;2023-04-01T16:50:06;0.40;;;0.40;;
16516;SDS011;8371;52.272;9.746;2023-04-01T16:55:51;0.87;;;0.30;;
16516;SDS011;8371;52.272;9.746;2023-04-01T16:58:25;0.30;;;0.30;;
16516;SDS011;8371;52.272;9.746;2023-04-01T17:00:55;0.30;;;0.30;;
16516;SDS011;8371;52.272;9.746;2023-04-01T17:03:27;0.30;;;0.30;;
16516;SDS011;8371;52.272;9.746;2023-04-01T17:11:36;0.43;;;0.43;;
16516;SDS011;8371;52.272;9.746;2023-04-01T17:14:08;0.60;;;0.60;;
16516;SDS011;8371;52.272;9.746;2023-04-01T17:22:07;0.30;;;0.30;;
16516;SDS011;8371;52.272;9.746;2023-04-01T17:25:01;0.70;;;0.70;;
16516;SDS011;8371;52.272;9.746;2023-04-01T17:30:22;0.40;;;0.40;;
16516;SDS011;8371;52.272;9.746;2023-04-01T17:33:00;0.40;;;0.40;;
16516;SDS011;8371;52.272;9.746;2023-04-01T17:35:43;0.60;;;0.60;;
16516;SDS011;8371;52.272;9.746;2023-04-01T17:38:39;0.50;;;0.50;;
16516;SDS011;8371;52.272;9.746;2023-04-01T17:41:28;0.50;;;0.50;;
16516;SDS011;8371;52.272;9.746;2023-04-01T17:47:12;0.77;;;0.77;;
16516;SDS011;8371;52.272;9.746;2023-04-01T17:53:07;0.70;;;0.70;;
16516;SDS011;8371;52.272;9.746;2023-04-01T18:00:47;0.57;;;0.57;;
16516;SDS011;8371;52.272;9.746;2023-04-01T18:11:45;1.47;;;1.00;;
16516;SDS011;8371;52.272;9.746;2023-04-01T18:22:54;0.63;;;0.63;;
16516;SDS011;8371;52.272;9.746;2023-04-01T18:25:24;0.40;;;0.40;;
16516;SDS011;8371;52.272;9.746;2023-04-01T18:30:44;0.37;;;0.37;;
16516;SDS011;8371;52.272;9.746;2023-04-01T18:36:18;4.33;;;0.60;;
16516;SDS011;8371;52.272;9.746;2023-04-01T18:38:55;0.50;;;0.50;;
16516;SDS011;8371;52.272;9.746;2023-04-01T18:41:40;0.70;;;0.70;;
16516;SDS011;8371;52.272;9.746;2023-04-01T18:47:13;0.80;;;0.80;;
16516;SDS011;8371;52.272;9.746;2023-04-01T18:52:21;1.00;;;1.00;;
16516;SDS011;8371;52.272;9.746;2023-04-01T19:00:23;0.80;;;0.80;;
16516;SDS011;8371;52.272;9.746;2023-04-01T19:03:07;0.80;;;0.80;;
16516;SDS011;8371;52.272;9.746;2023-04-01T19:05:42;0.67;;;0.67;;
16516;SDS011;8371;52.272;9.746;2023-04-01T19:08:14;0.87;;;0.87;;
16516;SDS011;8371;52.272;9.746;2023-04-01T19:10:47;0.70;;;0.70;;
16516;SDS011;8371;52.272;9.746;2023-04-01T19:21:57;0.70;;;0.70;;
16516;SDS011;8371;52.272;9.746;2023-04-01T19:24:33;0.83;;;0.83;;
16516;SDS011;8371;52.272;9.746;2023-04-01T19:30:21;0.80;;;0.80;;
16516;SDS011;8371;52.272;9.746;2023-04-01T19:37:51;1.13;;;1.13;;
16516;SDS011;8371;52.272;9.746;2023-04-01T19:40:30;0.90;;;0.90;;
16516;SDS011;8371;52.272;9.746;2023-04-01T19:42:58;0.90;;;0.90;;
16516;SDS011;8371;52.272;9.746;2023-04-01T19:50:27;1.20;;;1.20;;
16516;SDS011;8371;52.272;9.746;2023-04-01T19:53:18;1.10;;;1.10;;
16516;SDS011;8371;52.272;9.746;2023-04-01T19:58:44;1.00;;;1.00;;
16516;SDS011;8371;52.272;9.746;2023-04-01T20:01:22;0.80;;;0.80;;
16516;SDS011;8371;52.272;9.746;2023-04-01T20:04:08;1.30;;;1.30;;
16516;SDS011;8371;52.272;9.746;2023-04-01T20:06:49;1.37;;;1.37;;
16516;SDS011;8371;52.272;9.746;2023-04-01T20:09:28;1.13;;;1.13;;
16516;SDS011;8371;52.272;9.746;2023-04-01T20:11:58;1.67;;;1.57;;
16516;SDS011;8371;52.272;9.746;2023-04-01T20:30:48;1.33;;;1.33;;
16516;SDS011;8371;52.272;9.746;2023-04-01T20:33:37;1.20;;;1.20;;
16516;SDS011;8371;52.272;9.746;2023-04-01T20:41:53;1.30;;;1.30;;
16516;SDS011;8371;52.272;9.746;2023-04-01T20:44:31;1.40;;;1.40;;
16516;SDS011;8371;52.272;9.746;2023-04-01T20:47:03;1.10;;;1.10;;
16516;SDS011;8371;52.272;9.746;2023-04-01T20:55:28;1.47;;;1.37;;
16516;SDS011;8371;52.272;9.746;2023-04-01T21:14:35;3.17;;;1.70;;
16516;SDS011;8371;52.272;9.746;2023-04-01T21:16:41;1.50;;;1.50;;
16516;SDS011;8371;52.272;9.746;2023-04-01T21:19:15;2.03;;;1.93;;
16516;SDS011;8371;52.272;9.746;2023-04-01T21:24:56;1.73;;;1.73;;
16516;SDS011;8371;52.272;9.746;2023-04-01T21:27:41;1.87;;;1.80;;
16516;SDS011;8371;52.272;9.746;2023-04-01T21:30:32;1.80;;;1.80;;
16516;SDS011;8371;52.272;9.746;2023-04-01T21:33:22;2.30;;;2.20;;
16516;SDS011;8371;52.272;9.746;2023-04-01T21:42:14;2.20;;;2.10;;
16516;SDS011;8371;52.272;9.746;2023-04-01T21:50:26;2.30;;;2.20;;
16516;SDS011;8371;52.272;9.746;2023-04-01T21:58:12;2.17;;;2.07;;
16516;SDS011;8371;52.272;9.746;2023-04-01T22:00:44;2.23;;;2.03;;
16516;SDS011;8371;52.272;9.746;2023-04-01T22:06:21;2.53;;;2.33;;
16516;SDS011;8371;52.272;9.746;2023-04-01T22:08:59;2.00;;;1.90;;
16516;SDS011;8371;52.272;9.746;2023-04-01T22:11:31;1.70;;;1.70;;
16516;SDS011;8371;52.272;9.746;2023-04-01T22:14:09;2.27;;;2.07;;
16516;SDS011;8371;52.272;9.746;2023-04-01T22:16:51;2.40;;;2.30;;
16516;SDS011;8371;52.272;9.746;2023-04-01T22:19:30;2.67;;;2.30;;
16516;SDS011;8371;52.272;9.746;2023-04-01T22:22:08;2.90;;;2.70;;
16516;SDS011;8371;52.272;9.746;2023-04-01T22:24:47;2.80;;;2.70;;
16516;SDS011;8371;52.272;9.746;2023-04-01T22:27:34;2.80;;;2.70;;
16516;SDS011;8371;52.272;9.746;2023-04-01T22:30:20;2.40;;;2.20;;
16516;SDS011;8371;52.272;9.746;2023-04-01T22:35:53;2.70;;;2.60;;
16516;SDS011;8371;52.272;9.746;2023-04-01T22:43:54;2.20;;;2.10;;
16516;SDS011;8371;52.272;9.746;2023-04-01T22:46:37;2.10;;;2.00;;
16516;SDS011;8371;52.272;9.746;2023-04-01T22:49:05;2.60;;;2.50;;
16516;SDS011;8371;52.272;9.746;2023-04-01T22:51:45;2.50;;;2.40;;
16516;SDS011;8371;52.272;9.746;2023-04-01T22:54:15;2.30;;;2.20;;
16516;SDS011;8371;52.272;9.746;2023-04-01T22:56:53;2.37;;;2.27;;